sensor_id;sensor_type;location;lat;lon;timestamp;P1;durP1;ratioP1;P2;durP2;ratioP2
26036;SDS011;13810;48.376;10.944;2022-11-15T00:00:02;22.15;;;10.82;;
26036;SDS011;13810;48.376;10.944;2022-11-15T00:00:33;20.48;;;10.65;;
26036;SDS011;13810;48.376;10.944;2022-11-15T00:01:14;20.35;;;10.93;;
26036;SDS011;13810;48.376;10.944;2022-11-15T00:01:47;18.50;;;10.95;;
26036;SDS011;13810;48.376;10.944;2022-11-15T00:02:17;18.48;;;10.32;;
26036;SDS011;13810;48.376;10.944;2022-11-15T00:02:48;21.80;;;11.93;;
26036;SDS011;13810;48.376;10.944;2022-11-15T00:03:22;22.95;;;11.43;;
26036;SDS011;13810;48.376;10.944;2022-11-15T00:03:54;22.27;;;10.80;;
26036;SDS011;13810;48.376;10.944;2022-11-15T00:04:24;23.35;;;12.60;;
26036;SDS011;13810;48.376;10.944;2022-11-15T00:04:55;19.33;;;10.57;;
26036;SDS011;13810;48.376;10.944;2022-11-15T00:05:26;21.83;;;11.90;;
26036;SDS011;13810;48.376;10.944;2022-11-15T00:06:00;26.83;;;12.13;;
26036;SDS011;13810;48.376;10.944;2022-11-15T00:06:33;20.58;;;11.88;;
26036;SDS011;13810;48.376;10.944;2022-11-15T00:07:03;22.50;;;11.40;;
26036;SDS011;13810;48.376;10.944;2022-11-15T00:07:34;22.13;;;12.45;;
26036;SDS011;13810;48.376;10.944;2022-11-15T00:08:05;20.70;;;11.57;;
26036;SDS011;13810;48.376;10.944;2022-11-15T00:08:35;21.58;;;11.00;;
26036;SDS011;13810;48.376;10.944;2022-11-15T00:09:06;24.38;;;12.70;;
26036;SDS011;13810;48.376;10.944;2022-11-15T00:09:37;29.80;;;13.23;;
26036;SDS011;13810;48.376;10.944;2022-11-15T00:10:07;23.70;;;12.85;;
26036;SDS011;13810;48.376;10.944;2022-11-15T00:10:38;27.13;;;12.50;;
26036;SDS011;13810;48.376;10.944;2022-11-15T00:11:09;20.40;;;12.27;;
26036;SDS011;13810;48.376;10.944;2022-11-15T00:11:41;23.40;;;11.77;;
26036;SDS011;13810;48.376;10.944;2022-11-15T00:12:12;25.55;;;12.93;;
26036;SDS011;13810;48.376;10.944;2022-11-15T00:12:42;21.15;;;11.07;;
26036;SDS011;13810;48.376;10.944;2022-11-15T00:13:13;22.23;;;11.70;;
26036;SDS011;13810;48.376;10.944;2022-11-15T00:13:43;22.33;;;12.55;;
26036;SDS011;13810;48.376;10.944;2022-11-15T00:14:14;19.75;;;10.98;;
26036;SDS011;13810;48.376;10.944;2022-11-15T00:14:45;22.13;;;11.85;;
26036;SDS011;13810;48.376;10.944;2022-11-15T00:15:15;24.63;;;12.88;;
26036;SDS011;13810;48.376;10.944;2022-11-15T00:15:46;25.92;;;11.70;;
26036;SDS011;13810;48.376;10.944;2022-11-15T00:16:17;22.88;;;11.85;;
26036;SDS011;13810;48.376;10.944;2022-11-15T00:16:47;20.00;;;12.23;;
26036;SDS011;13810;48.376;10.944;2022-11-15T00:17:18;24.10;;;11.93;;
26036;SDS011;13810;48.376;10.944;2022-11-15T00:17:49;23.58;;;12.30;;
26036;SDS011;13810;48.376;10.944;2022-11-15T00:18:19;18.05;;;10.77;;
26036;SDS011;13810;48.376;10.944;2022-11-15T00:18:50;27.40;;;11.38;;
26036;SDS011;13810;48.376;10.944;2022-11-15T00:19:21;24.60;;;11.48;;
26036;SDS011;13810;48.376;10.944;2022-11-15T00:19:52;20.95;;;11.98;;
26036;SDS011;13810;48.376;10.944;2022-11-15T00:20:22;22.33;;;11.70;;
26036;SDS011;13810;48.376;10.944;2022-11-15T00:20:53;25.10;;;11.32;;
26036;SDS011;13810;48.376;10.944;2022-11-15T00:21:24;22.00;;;11.07;;
26036;SDS011;13810;48.376;10.944;2022-11-15T00:21:54;19.08;;;11.73;;
26036;SDS011;13810;48.376;10.944;2022-11-15T00:22:30;20.75;;;11.23;;
26036;SDS011;13810;48.376;10.944;2022-11-15T00:23:04;21.00;;;11.15;;
26036;SDS011;13810;48.376;10.944;2022-11-15T00:23:35;20.45;;;11.45;;
26036;SDS011;13810;48.376;10.944;2022-11-15T00:24:07;17.20;;;10.27;;
26036;SDS011;13810;48.376;10.944;2022-11-15T00:24:38;19.20;;;11.15;;
26036;SDS011;13810;48.376;10.944;2022-11-15T00:25:08;20.00;;;11.77;;
26036;SDS011;13810;48.376;10.944;2022-11-15T00:25:39;18.50;;;10.85;;
26036;SDS011;13810;48.376;10.944;2022-11-15T00:26:11;26.38;;;11.73;;
26036;SDS011;13810;48.376;10.944;2022-11-15T00:26:46;20.88;;;10.88;;
26036;SDS011;13810;48.376;10.944;2022-11-15T00:27:16;22.25;;;11.73;;
26036;SDS011;13810;48.376;10.944;2022-11-15T00:27:47;22.77;;;11.80;;
26036;SDS011;13810;48.376;10.944;2022-11-15T00:28:18;21.55;;;10.90;;
26036;SDS011;13810;48.376;10.944;2022-11-15T00:28:48;22.92;;;12.57;;
26036;SDS011;13810;48.376;10.944;2022-11-15T00:29:22;18.23;;;10.82;;
26036;SDS011;13810;48.376;10.944;2022-11-15T00:29:53;19.02;;;10.55;;
26036;SDS011;13810;48.376;10.944;2022-11-15T00:30:24;19.58;;;10.55;;
26036;SDS011;13810;48.376;10.944;2022-11-15T00:31:01;20.50;;;10.68;;
26036;SDS011;13810;48.376;10.944;2022-11-15T00:31:34;17.98;;;10.23;;
26036;SDS011;13810;48.376;10.944;2022-11-15T00:32:04;19.50;;;10.43;;
26036;SDS011;13810;48.376;10.944;2022-11-15T00:32:35;18.80;;;10.00;;
26036;SDS011;13810;48.376;10.944;2022-11-15T00:33:06;19.90;;;10.20;;
26036;SDS011;13810;48.376;10.944;2022-11-15T00:33:37;18.63;;;10.18;;
26036;SDS011;13810;48.376;10.944;2022-11-15T00:34:08;18.58;;;9.50;;
26036;SDS011;13810;48.376;10.944;2022-11-15T00:34:40;16.23;;;9.45;;
26036;SDS011;13810;48.376;10.944;2022-11-15T00:35:10;18.42;;;9.77;;
26036;SDS011;13810;48.376;10.944;2022-11-15T00:35:41;19.92;;;10.77;;
26036;SDS011;13810;48.376;10.944;2022-11-15T00:36:12;21.38;;;10.13;;
26036;SDS011;13810;48.376;10.944;2022-11-15T00:36:43;17.45;;;9.80;;
26036;SDS011;13810;48.376;10.944;2022-11-15T00:37:13;17.75;;;10.70;;
26036;SDS011;13810;48.376;10.944;2022-11-15T00:37:44;19.52;;;11.48;;
26036;SDS011;13810;48.376;10.944;2022-11-15T00:38:16;21.73;;;10.82;;
26036;SDS011;13810;48.376;10.944;2022-11-15T00:38:47;18.23;;;10.40;;
26036;SDS011;13810;48.376;10.944;2022-11-15T00:39:17;18.00;;;10.70;;
26036;SDS011;13810;48.376;10.944;2022-11-15T00:39:48;18.60;;;10.88;;
26036;SDS011;13810;48.376;10.944;2022-11-15T00:40:19;17.25;;;9.45;;
26036;SDS011;13810;48.376;10.944;2022-11-15T00:40:49;18.58;;;10.05;;
26036;SDS011;13810;48.376;10.944;2022-11-15T00:41:20;17.60;;;10.32;;
26036;SDS011;13810;48.376;10.944;2022-11-15T00:41:51;17.40;;;10.48;;
26036;SDS011;13810;48.376;10.944;2022-11-15T00:42:21;19.55;;;10.35;;
26036;SDS011;13810;48.376;10.944;2022-11-15T00:42:52;20.67;;;10.80;;
26036;SDS011;13810;48.376;10.944;2022-11-15T00:43:22;20.38;;;10.73;;
26036;SDS011;13810;48.376;10.944;2022-11-15T00:43:53;18.33;;;9.57;;
26036;SDS011;13810;48.376;10.944;2022-11-15T00:44:24;20.92;;;9.98;;
26036;SDS011;13810;48.376;10.944;2022-11-15T00:44:54;17.38;;;9.60;;
26036;SDS011;13810;48.376;10.944;2022-11-15T00:45:25;17.52;;;9.73;;
26036;SDS011;13810;48.376;10.944;2022-11-15T00:45:56;20.48;;;10.55;;
26036;SDS011;13810;48.376;10.944;2022-11-15T00:46:27;20.25;;;10.50;;
26036;SDS011;13810;48.376;10.944;2022-11-15T00:46:57;16.27;;;10.02;;
26036;SDS011;13810;48.376;10.944;2022-11-15T00:47:28;17.27;;;10.35;;
26036;SDS011;13810;48.376;10.944;2022-11-15T00:47:59;16.92;;;9.60;;
26036;SDS011;13810;48.376;10.944;2022-11-15T00:48:29;16.80;;;9.98;;
26036;SDS011;13810;48.376;10.944;2022-11-15T00:49:01;16.58;;;9.45;;
26036;SDS011;13810;48.376;10.944;2022-11-15T00:49:32;17.73;;;10.68;;
26036;SDS011;13810;48.376;10.944;2022-11-15T00:50:03;22.65;;;10.75;;
26036;SDS011;13810;48.376;10.944;2022-11-15T00:50:34;17.02;;;9.60;;
26036;SDS011;13810;48.376;10.944;2022-11-15T00:51:04;20.33;;;9.82;;
26036;SDS011;13810;48.376;10.944;2022-11-15T00:51:35;15.90;;;9.20;;
26036;SDS011;13810;48.376;10.944;2022-11-15T00:52:06;15.07;;;9.30;;
26036;SDS011;13810;48.376;10.944;2022-11-15T00:52:37;20.80;;;9.82;;
26036;SDS011;13810;48.376;10.944;2022-11-15T00:53:07;17.20;;;9.23;;
26036;SDS011;13810;48.376;10.944;2022-11-15T00:53:38;15.73;;;9.68;;
26036;SDS011;13810;48.376;10.944;2022-11-15T00:54:09;18.77;;;9.18;;
26036;SDS011;13810;48.376;10.944;2022-11-15T00:54:39;16.17;;;9.63;;
26036;SDS011;13810;48.376;10.944;2022-11-15T00:55:14;17.80;;;9.05;;
26036;SDS011;13810;48.376;10.944;2022-11-15T00:55:46;16.13;;;8.82;;
26036;SDS011;13810;48.376;10.944;2022-11-15T00:56:16;18.45;;;9.07;;
26036;SDS011;13810;48.376;10.944;2022-11-15T00:56:47;14.32;;;8.38;;
26036;SDS011;13810;48.376;10.944;2022-11-15T00:57:18;16.00;;;8.98;;
26036;SDS011;13810;48.376;10.944;2022-11-15T00:57:48;15.05;;;9.05;;
26036;SDS011;13810;48.376;10.944;2022-11-15T00:58:19;19.40;;;9.73;;
26036;SDS011;13810;48.376;10.944;2022-11-15T00:58:50;19.05;;;9.55;;
26036;SDS011;13810;48.376;10.944;2022-11-15T00:59:20;19.98;;;9.80;;
26036;SDS011;13810;48.376;10.944;2022-11-15T00:59:51;18.88;;;9.80;;
26036;SDS011;13810;48.376;10.944;2022-11-15T01:00:22;18.27;;;8.80;;
26036;SDS011;13810;48.376;10.944;2022-11-15T01:00:53;18.50;;;10.10;;
26036;SDS011;13810;48.376;10.944;2022-11-15T01:01:24;20.25;;;9.23;;
26036;SDS011;13810;48.376;10.944;2022-11-15T01:01:55;15.55;;;8.95;;
26036;SDS011;13810;48.376;10.944;2022-11-15T01:02:25;19.00;;;10.30;;
26036;SDS011;13810;48.376;10.944;2022-11-15T01:02:58;17.30;;;10.27;;
26036;SDS011;13810;48.376;10.944;2022-11-15T01:03:31;17.55;;;9.20;;
26036;SDS011;13810;48.376;10.944;2022-11-15T01:04:03;19.33;;;9.00;;
26036;SDS011;13810;48.376;10.944;2022-11-15T01:04:33;14.10;;;8.57;;
26036;SDS011;13810;48.376;10.944;2022-11-15T01:05:04;16.67;;;9.05;;
26036;SDS011;13810;48.376;10.944;2022-11-15T01:05:38;15.57;;;9.48;;
26036;SDS011;13810;48.376;10.944;2022-11-15T01:06:10;18.80;;;9.65;;
26036;SDS011;13810;48.376;10.944;2022-11-15T01:06:41;17.27;;;9.18;;
26036;SDS011;13810;48.376;10.944;2022-11-15T01:07:12;21.20;;;9.35;;
26036;SDS011;13810;48.376;10.944;2022-11-15T01:07:43;17.63;;;9.32;;
26036;SDS011;13810;48.376;10.944;2022-11-15T01:08:14;19.85;;;9.50;;
26036;SDS011;13810;48.376;10.944;2022-11-15T01:08:45;15.43;;;9.32;;
26036;SDS011;13810;48.376;10.944;2022-11-15T01:09:16;13.50;;;9.05;;
26036;SDS011;13810;48.376;10.944;2022-11-15T01:10:44;16.90;;;8.07;;
26036;SDS011;13810;48.376;10.944;2022-11-15T01:11:15;14.43;;;8.38;;
26036;SDS011;13810;48.376;10.944;2022-11-15T01:11:46;17.65;;;8.20;;
26036;SDS011;13810;48.376;10.944;2022-11-15T01:12:16;16.50;;;8.55;;
26036;SDS011;13810;48.376;10.944;2022-11-15T01:12:47;13.15;;;8.00;;
26036;SDS011;13810;48.376;10.944;2022-11-15T01:13:18;15.55;;;8.27;;
26036;SDS011;13810;48.376;10.944;2022-11-15T01:13:49;15.35;;;8.57;;
26036;SDS011;13810;48.376;10.944;2022-11-15T01:14:20;14.82;;;8.55;;
26036;SDS011;13810;48.376;10.944;2022-11-15T01:14:50;14.48;;;8.20;;
26036;SDS011;13810;48.376;10.944;2022-11-15T01:15:21;11.18;;;7.50;;
26036;SDS011;13810;48.376;10.944;2022-11-15T01:15:52;12.52;;;8.00;;
26036;SDS011;13810;48.376;10.944;2022-11-15T01:16:22;14.07;;;8.68;;
26036;SDS011;13810;48.376;10.944;2022-11-15T01:16:53;14.63;;;8.70;;
26036;SDS011;13810;48.376;10.944;2022-11-15T01:17:24;14.25;;;7.72;;
26036;SDS011;13810;48.376;10.944;2022-11-15T01:17:54;18.02;;;8.38;;
26036;SDS011;13810;48.376;10.944;2022-11-15T01:18:25;12.45;;;7.82;;
26036;SDS011;13810;48.376;10.944;2022-11-15T01:18:56;15.60;;;8.55;;
26036;SDS011;13810;48.376;10.944;2022-11-15T01:19:26;17.60;;;8.93;;
26036;SDS011;13810;48.376;10.944;2022-11-15T01:19:57;16.42;;;8.88;;
26036;SDS011;13810;48.376;10.944;2022-11-15T01:20:28;17.42;;;9.23;;
26036;SDS011;13810;48.376;10.944;2022-11-15T01:20:58;11.88;;;7.95;;
26036;SDS011;13810;48.376;10.944;2022-11-15T01:21:29;16.17;;;8.98;;
26036;SDS011;13810;48.376;10.944;2022-11-15T01:22:00;13.43;;;8.05;;
26036;SDS011;13810;48.376;10.944;2022-11-15T01:22:31;16.67;;;7.95;;
26036;SDS011;13810;48.376;10.944;2022-11-15T01:23:01;14.88;;;7.93;;
26036;SDS011;13810;48.376;10.944;2022-11-15T01:23:32;14.38;;;8.07;;
26036;SDS011;13810;48.376;10.944;2022-11-15T01:24:03;10.55;;;7.55;;
26036;SDS011;13810;48.376;10.944;2022-11-15T01:24:34;13.93;;;7.70;;
26036;SDS011;13810;48.376;10.944;2022-11-15T01:25:05;16.95;;;8.50;;
26036;SDS011;13810;48.376;10.944;2022-11-15T01:25:35;15.63;;;7.97;;
26036;SDS011;13810;48.376;10.944;2022-11-15T01:26:07;13.02;;;8.00;;
26036;SDS011;13810;48.376;10.944;2022-11-15T01:26:40;14.52;;;8.60;;
26036;SDS011;13810;48.376;10.944;2022-11-15T01:27:10;14.98;;;7.95;;
26036;SDS011;13810;48.376;10.944;2022-11-15T01:27:41;14.13;;;7.95;;
26036;SDS011;13810;48.376;10.944;2022-11-15T01:28:12;13.45;;;7.70;;
26036;SDS011;13810;48.376;10.944;2022-11-15T01:28:42;14.05;;;8.43;;
26036;SDS011;13810;48.376;10.944;2022-11-15T01:29:13;13.52;;;7.65;;
26036;SDS011;13810;48.376;10.944;2022-11-15T01:29:44;12.93;;;7.97;;
26036;SDS011;13810;48.376;10.944;2022-11-15T01:30:15;19.00;;;8.55;;
26036;SDS011;13810;48.376;10.944;2022-11-15T01:30:45;17.38;;;8.38;;
26036;SDS011;13810;48.376;10.944;2022-11-15T01:31:17;16.23;;;8.18;;
26036;SDS011;13810;48.376;10.944;2022-11-15T01:31:50;14.20;;;7.88;;
26036;SDS011;13810;48.376;10.944;2022-11-15T01:32:22;12.60;;;8.00;;
26036;SDS011;13810;48.376;10.944;2022-11-15T01:32:53;13.20;;;7.80;;
26036;SDS011;13810;48.376;10.944;2022-11-15T01:33:23;16.83;;;8.80;;
26036;SDS011;13810;48.376;10.944;2022-11-15T01:33:54;15.98;;;8.30;;
26036;SDS011;13810;48.376;10.944;2022-11-15T01:34:25;17.38;;;8.32;;
26036;SDS011;13810;48.376;10.944;2022-11-15T01:34:55;14.73;;;8.65;;
26036;SDS011;13810;48.376;10.944;2022-11-15T01:35:26;14.27;;;7.72;;
26036;SDS011;13810;48.376;10.944;2022-11-15T01:35:57;14.43;;;7.45;;
26036;SDS011;13810;48.376;10.944;2022-11-15T01:36:27;13.10;;;7.55;;
26036;SDS011;13810;48.376;10.944;2022-11-15T01:36:58;16.95;;;7.85;;
26036;SDS011;13810;48.376;10.944;2022-11-15T01:37:29;11.85;;;7.70;;
26036;SDS011;13810;48.376;10.944;2022-11-15T01:37:59;12.38;;;7.70;;
26036;SDS011;13810;48.376;10.944;2022-11-15T01:38:30;11.73;;;7.50;;
26036;SDS011;13810;48.376;10.944;2022-11-15T01:39:01;14.77;;;7.85;;
26036;SDS011;13810;48.376;10.944;2022-11-15T01:39:32;12.10;;;7.20;;
26036;SDS011;13810;48.376;10.944;2022-11-15T01:40:03;13.85;;;8.27;;
26036;SDS011;13810;48.376;10.944;2022-11-15T01:40:34;15.30;;;8.23;;
26036;SDS011;13810;48.376;10.944;2022-11-15T01:41:04;18.27;;;8.45;;
26036;SDS011;13810;48.376;10.944;2022-11-15T01:41:35;14.88;;;7.93;;
26036;SDS011;13810;48.376;10.944;2022-11-15T01:42:08;16.70;;;8.50;;
26036;SDS011;13810;48.376;10.944;2022-11-15T01:42:42;15.25;;;8.45;;
26036;SDS011;13810;48.376;10.944;2022-11-15T01:43:46;14.52;;;8.50;;
26036;SDS011;13810;48.376;10.944;2022-11-15T01:44:59;11.82;;;7.22;;
26036;SDS011;13810;48.376;10.944;2022-11-15T01:45:30;13.57;;;7.22;;
26036;SDS011;13810;48.376;10.944;2022-11-15T01:46:04;15.50;;;7.93;;
26036;SDS011;13810;48.376;10.944;2022-11-15T01:46:51;16.27;;;7.28;;
26036;SDS011;13810;48.376;10.944;2022-11-15T01:47:29;15.48;;;8.07;;
26036;SDS011;13810;48.376;10.944;2022-11-15T01:48:03;20.13;;;8.02;;
26036;SDS011;13810;48.376;10.944;2022-11-15T01:48:34;11.98;;;7.05;;
26036;SDS011;13810;48.376;10.944;2022-11-15T01:49:10;12.77;;;7.70;;
26036;SDS011;13810;48.376;10.944;2022-11-15T01:49:52;17.15;;;7.22;;
26036;SDS011;13810;48.376;10.944;2022-11-15T01:50:33;13.02;;;8.00;;
26036;SDS011;13810;48.376;10.944;2022-11-15T01:51:05;15.77;;;7.32;;
26036;SDS011;13810;48.376;10.944;2022-11-15T01:51:39;12.90;;;7.70;;
26036;SDS011;13810;48.376;10.944;2022-11-15T01:52:12;15.18;;;8.43;;
26036;SDS011;13810;48.376;10.944;2022-11-15T01:52:45;14.95;;;8.25;;
26036;SDS011;13810;48.376;10.944;2022-11-15T01:53:16;11.57;;;7.65;;
26036;SDS011;13810;48.376;10.944;2022-11-15T01:53:49;14.68;;;7.38;;
26036;SDS011;13810;48.376;10.944;2022-11-15T01:54:24;12.85;;;7.68;;
26036;SDS011;13810;48.376;10.944;2022-11-15T01:54:57;13.95;;;8.10;;
26036;SDS011;13810;48.376;10.944;2022-11-15T01:55:33;16.73;;;8.38;;
26036;SDS011;13810;48.376;10.944;2022-11-15T01:56:05;15.10;;;8.25;;
26036;SDS011;13810;48.376;10.944;2022-11-15T01:56:40;14.45;;;7.80;;
26036;SDS011;13810;48.376;10.944;2022-11-15T01:57:17;12.82;;;8.55;;
26036;SDS011;13810;48.376;10.944;2022-11-15T01:57:50;15.82;;;8.80;;
26036;SDS011;13810;48.376;10.944;2022-11-15T01:58:25;15.38;;;8.50;;
26036;SDS011;13810;48.376;10.944;2022-11-15T01:58:56;12.38;;;7.32;;
26036;SDS011;13810;48.376;10.944;2022-11-15T01:59:28;15.57;;;7.97;;
26036;SDS011;13810;48.376;10.944;2022-11-15T02:00:00;21.00;;;8.55;;
26036;SDS011;13810;48.376;10.944;2022-11-15T02:00:33;14.90;;;8.45;;
26036;SDS011;13810;48.376;10.944;2022-11-15T02:01:04;12.13;;;8.38;;
26036;SDS011;13810;48.376;10.944;2022-11-15T02:01:34;15.70;;;8.63;;
26036;SDS011;13810;48.376;10.944;2022-11-15T02:02:05;18.92;;;9.00;;
26036;SDS011;13810;48.376;10.944;2022-11-15T02:02:36;17.08;;;9.00;;
26036;SDS011;13810;48.376;10.944;2022-11-15T02:03:08;14.10;;;7.72;;
26036;SDS011;13810;48.376;10.944;2022-11-15T02:03:43;16.48;;;9.30;;
26036;SDS011;13810;48.376;10.944;2022-11-15T02:04:56;14.05;;;7.65;;
26036;SDS011;13810;48.376;10.944;2022-11-15T02:05:27;16.20;;;8.32;;
26036;SDS011;13810;48.376;10.944;2022-11-15T02:06:00;12.52;;;7.60;;
26036;SDS011;13810;48.376;10.944;2022-11-15T02:06:31;13.98;;;8.10;;
26036;SDS011;13810;48.376;10.944;2022-11-15T02:07:03;16.02;;;8.82;;
26036;SDS011;13810;48.376;10.944;2022-11-15T02:07:35;16.70;;;8.57;;
26036;SDS011;13810;48.376;10.944;2022-11-15T02:08:06;16.70;;;8.57;;
26036;SDS011;13810;48.376;10.944;2022-11-15T02:08:38;14.80;;;8.45;;
26036;SDS011;13810;48.376;10.944;2022-11-15T02:09:09;15.95;;;8.45;;
26036;SDS011;13810;48.376;10.944;2022-11-15T02:09:40;13.30;;;8.30;;
26036;SDS011;13810;48.376;10.944;2022-11-15T02:10:13;12.40;;;7.35;;
26036;SDS011;13810;48.376;10.944;2022-11-15T02:10:48;14.13;;;7.85;;
26036;SDS011;13810;48.376;10.944;2022-11-15T02:11:18;12.95;;;7.05;;
26036;SDS011;13810;48.376;10.944;2022-11-15T02:11:49;16.10;;;7.10;;
26036;SDS011;13810;48.376;10.944;2022-11-15T02:12:21;12.98;;;6.43;;
26036;SDS011;13810;48.376;10.944;2022-11-15T02:12:53;11.70;;;6.82;;
26036;SDS011;13810;48.376;10.944;2022-11-15T02:13:25;14.93;;;6.88;;
26036;SDS011;13810;48.376;10.944;2022-11-15T02:13:56;11.38;;;6.82;;
26036;SDS011;13810;48.376;10.944;2022-11-15T02:14:29;11.95;;;5.93;;
26036;SDS011;13810;48.376;10.944;2022-11-15T02:15:01;12.75;;;6.43;;
26036;SDS011;13810;48.376;10.944;2022-11-15T02:15:36;9.20;;;5.50;;
26036;SDS011;13810;48.376;10.944;2022-11-15T02:16:35;9.48;;;6.63;;
26036;SDS011;13810;48.376;10.944;2022-11-15T02:18:14;8.65;;;5.03;;
26036;SDS011;13810;48.376;10.944;2022-11-15T02:21:06;11.55;;;5.65;;
26036;SDS011;13810;48.376;10.944;2022-11-15T02:23:36;12.13;;;6.43;;
26036;SDS011;13810;48.376;10.944;2022-11-15T02:24:26;11.05;;;6.32;;
26036;SDS011;13810;48.376;10.944;2022-11-15T02:28:21;12.45;;;7.57;;
26036;SDS011;13810;48.376;10.944;2022-11-15T02:29:05;14.55;;;7.00;;
26036;SDS011;13810;48.376;10.944;2022-11-15T02:30:00;12.15;;;7.18;;
26036;SDS011;13810;48.376;10.944;2022-11-15T02:31:04;10.88;;;6.18;;
26036;SDS011;13810;48.376;10.944;2022-11-15T02:31:54;10.80;;;6.47;;
26036;SDS011;13810;48.376;10.944;2022-11-15T02:32:44;13.73;;;6.95;;
26036;SDS011;13810;48.376;10.944;2022-11-15T02:34:30;13.65;;;6.63;;
26036;SDS011;13810;48.376;10.944;2022-11-15T02:36:02;12.13;;;6.35;;
26036;SDS011;13810;48.376;10.944;2022-11-15T02:37:55;12.45;;;7.05;;
26036;SDS011;13810;48.376;10.944;2022-11-15T02:38:32;10.30;;;6.03;;
26036;SDS011;13810;48.376;10.944;2022-11-15T02:39:16;13.10;;;7.07;;
26036;SDS011;13810;48.376;10.944;2022-11-15T02:40:38;9.60;;;6.68;;
26036;SDS011;13810;48.376;10.944;2022-11-15T02:42:33;13.63;;;6.35;;
26036;SDS011;13810;48.376;10.944;2022-11-15T02:43:31;13.80;;;5.47;;
26036;SDS011;13810;48.376;10.944;2022-11-15T02:44:30;10.02;;;6.25;;
26036;SDS011;13810;48.376;10.944;2022-11-15T02:45:12;9.57;;;5.07;;
26036;SDS011;13810;48.376;10.944;2022-11-15T02:45:50;10.73;;;6.15;;
26036;SDS011;13810;48.376;10.944;2022-11-15T02:46:31;12.68;;;6.88;;
26036;SDS011;13810;48.376;10.944;2022-11-15T02:47:24;8.57;;;5.65;;
26036;SDS011;13810;48.376;10.944;2022-11-15T02:47:58;10.43;;;5.80;;
26036;SDS011;13810;48.376;10.944;2022-11-15T02:48:31;10.88;;;6.53;;
26036;SDS011;13810;48.376;10.944;2022-11-15T02:49:02;10.80;;;6.38;;
26036;SDS011;13810;48.376;10.944;2022-11-15T02:49:34;13.30;;;6.50;;
26036;SDS011;13810;48.376;10.944;2022-11-15T02:50:06;10.25;;;6.72;;
26036;SDS011;13810;48.376;10.944;2022-11-15T02:50:42;13.13;;;6.68;;
26036;SDS011;13810;48.376;10.944;2022-11-15T02:51:13;13.05;;;7.68;;
26036;SDS011;13810;48.376;10.944;2022-11-15T02:51:45;11.85;;;6.50;;
26036;SDS011;13810;48.376;10.944;2022-11-15T02:52:21;16.55;;;7.28;;
26036;SDS011;13810;48.376;10.944;2022-11-15T02:52:55;15.30;;;7.70;;
26036;SDS011;13810;48.376;10.944;2022-11-15T02:53:26;16.27;;;7.97;;
26036;SDS011;13810;48.376;10.944;2022-11-15T02:53:57;14.02;;;7.68;;
26036;SDS011;13810;48.376;10.944;2022-11-15T02:54:29;19.77;;;8.85;;
26036;SDS011;13810;48.376;10.944;2022-11-15T02:55:02;13.48;;;8.00;;
26036;SDS011;13810;48.376;10.944;2022-11-15T02:55:34;19.20;;;8.57;;
26036;SDS011;13810;48.376;10.944;2022-11-15T02:56:08;14.52;;;7.85;;
26036;SDS011;13810;48.376;10.944;2022-11-15T02:56:42;13.65;;;7.75;;
26036;SDS011;13810;48.376;10.944;2022-11-15T02:57:16;13.60;;;7.97;;
26036;SDS011;13810;48.376;10.944;2022-11-15T02:59:04;12.82;;;7.25;;
26036;SDS011;13810;48.376;10.944;2022-11-15T03:00:05;13.90;;;6.78;;
26036;SDS011;13810;48.376;10.944;2022-11-15T03:00:40;11.50;;;7.40;;
26036;SDS011;13810;48.376;10.944;2022-11-15T03:04:59;13.07;;;6.00;;
26036;SDS011;13810;48.376;10.944;2022-11-15T03:07:43;13.80;;;7.07;;
26036;SDS011;13810;48.376;10.944;2022-11-15T03:08:32;10.15;;;5.97;;
26036;SDS011;13810;48.376;10.944;2022-11-15T03:10:06;13.82;;;6.97;;
26036;SDS011;13810;48.376;10.944;2022-11-15T03:11:20;15.25;;;7.80;;
26036;SDS011;13810;48.376;10.944;2022-11-15T03:11:56;13.07;;;7.63;;
26036;SDS011;13810;48.376;10.944;2022-11-15T03:12:41;17.98;;;8.40;;
26036;SDS011;13810;48.376;10.944;2022-11-15T03:14:32;7.65;;;5.40;;
26036;SDS011;13810;48.376;10.944;2022-11-15T03:15:18;19.63;;;6.65;;
26036;SDS011;13810;48.376;10.944;2022-11-15T03:16:24;10.32;;;6.35;;
26036;SDS011;13810;48.376;10.944;2022-11-15T03:17:33;14.70;;;6.90;;
26036;SDS011;13810;48.376;10.944;2022-11-15T03:18:32;14.05;;;7.43;;
26036;SDS011;13810;48.376;10.944;2022-11-15T03:19:13;12.60;;;6.45;;
26036;SDS011;13810;48.376;10.944;2022-11-15T03:19:58;12.63;;;7.10;;
26036;SDS011;13810;48.376;10.944;2022-11-15T03:20:31;10.52;;;6.68;;
26036;SDS011;13810;48.376;10.944;2022-11-15T03:21:04;12.70;;;7.03;;
26036;SDS011;13810;48.376;10.944;2022-11-15T03:21:37;14.35;;;7.28;;
26036;SDS011;13810;48.376;10.944;2022-11-15T03:22:11;12.75;;;7.22;;
26036;SDS011;13810;48.376;10.944;2022-11-15T03:22:46;13.27;;;6.82;;
26036;SDS011;13810;48.376;10.944;2022-11-15T03:23:18;12.57;;;7.68;;
26036;SDS011;13810;48.376;10.944;2022-11-15T03:23:49;11.52;;;6.88;;
26036;SDS011;13810;48.376;10.944;2022-11-15T03:24:22;12.25;;;6.90;;
26036;SDS011;13810;48.376;10.944;2022-11-15T03:24:58;16.42;;;7.28;;
26036;SDS011;13810;48.376;10.944;2022-11-15T03:25:33;12.80;;;7.00;;
26036;SDS011;13810;48.376;10.944;2022-11-15T03:26:08;16.60;;;7.07;;
26036;SDS011;13810;48.376;10.944;2022-11-15T03:26:42;12.07;;;6.85;;
26036;SDS011;13810;48.376;10.944;2022-11-15T03:27:16;12.02;;;6.82;;
26036;SDS011;13810;48.376;10.944;2022-11-15T03:27:52;13.30;;;7.75;;
26036;SDS011;13810;48.376;10.944;2022-11-15T03:28:32;12.05;;;7.30;;
26036;SDS011;13810;48.376;10.944;2022-11-15T03:29:17;10.18;;;7.13;;
26036;SDS011;13810;48.376;10.944;2022-11-15T03:29:59;10.25;;;7.18;;
26036;SDS011;13810;48.376;10.944;2022-11-15T03:30:34;12.30;;;6.95;;
26036;SDS011;13810;48.376;10.944;2022-11-15T03:31:07;12.68;;;7.00;;
26036;SDS011;13810;48.376;10.944;2022-11-15T03:32:01;12.35;;;6.57;;
26036;SDS011;13810;48.376;10.944;2022-11-15T03:32:56;10.93;;;6.60;;
26036;SDS011;13810;48.376;10.944;2022-11-15T03:33:28;11.90;;;6.70;;
26036;SDS011;13810;48.376;10.944;2022-11-15T03:34:00;11.43;;;6.68;;
26036;SDS011;13810;48.376;10.944;2022-11-15T03:35:06;12.30;;;6.93;;
26036;SDS011;13810;48.376;10.944;2022-11-15T03:35:41;12.88;;;7.22;;
26036;SDS011;13810;48.376;10.944;2022-11-15T03:36:14;13.80;;;7.00;;
26036;SDS011;13810;48.376;10.944;2022-11-15T03:36:46;14.98;;;7.47;;
26036;SDS011;13810;48.376;10.944;2022-11-15T03:37:20;14.00;;;7.93;;
26036;SDS011;13810;48.376;10.944;2022-11-15T03:37:57;11.80;;;7.05;;
26036;SDS011;13810;48.376;10.944;2022-11-15T03:38:33;12.57;;;7.65;;
26036;SDS011;13810;48.376;10.944;2022-11-15T03:39:06;13.77;;;7.78;;
26036;SDS011;13810;48.376;10.944;2022-11-15T03:39:38;15.57;;;7.78;;
26036;SDS011;13810;48.376;10.944;2022-11-15T03:40:09;12.35;;;7.45;;
26036;SDS011;13810;48.376;10.944;2022-11-15T03:40:41;15.13;;;7.53;;
26036;SDS011;13810;48.376;10.944;2022-11-15T03:41:21;10.23;;;6.88;;
26036;SDS011;13810;48.376;10.944;2022-11-15T03:42:36;11.57;;;7.22;;
26036;SDS011;13810;48.376;10.944;2022-11-15T03:43:47;10.80;;;7.43;;
26036;SDS011;13810;48.376;10.944;2022-11-15T03:45:13;13.60;;;6.75;;